createdAt,value
2023-04-26T00:01:53.183Z,9.28
2023-04-26T00:04:58.844Z,9.27
2023-04-26T00:08:01.595Z,9.19
2023-04-26T00:11:04.113Z,9.16
2023-04-26T00:14:06.770Z,9.17
2023-04-26T00:17:09.437Z,9.10
2023-04-26T00:20:14.097Z,9.08
2023-04-26T00:23:17.361Z,8.98
2023-04-26T00:26:19.829Z,8.90
2023-04-26T00:29:22.369Z,9.00
2023-04-26T00:32:24.891Z,8.92
2023-04-26T00:35:28.848Z,8.82
2023-04-26T00:38:31.604Z,8.73
2023-04-26T00:41:34.289Z,8.73
2023-04-26T00:44:40.006Z,8.80
2023-04-26T00:47:42.687Z,8.82
2023-04-26T00:50:47.691Z,8.73
2023-04-26T00:53:50.489Z,8.69
2023-04-26T00:56:53.332Z,8.66
2023-04-26T00:59:56.360Z,8.58
2023-04-26T01:02:59.044Z,8.65
2023-04-26T01:06:02.991Z,8.59
2023-04-26T01:09:09.876Z,8.55
2023-04-26T01:12:13.074Z,8.52
2023-04-26T01:15:15.624Z,8.51
2023-04-26T01:18:18.243Z,8.44
2023-04-26T01:21:22.796Z,8.35
2023-04-26T01:24:26.704Z,8.35
2023-04-26T01:27:29.248Z,8.43
2023-04-26T01:30:31.801Z,8.35
2023-04-26T01:33:34.273Z,8.24
2023-04-26T01:36:37.018Z,8.12
2023-04-26T01:39:41.009Z,8.05
2023-04-26T01:42:43.660Z,8.04
2023-04-26T01:45:47.763Z,7.97
2023-04-26T01:48:50.540Z,7.90
2023-04-26T01:51:53.387Z,7.87
2023-04-26T01:54:57.342Z,7.86
2023-04-26T01:57:59.913Z,7.91
2023-04-26T02:01:07.968Z,7.92
2023-04-26T02:04:10.632Z,7.75
2023-04-26T02:07:13.161Z,7.71
2023-04-26T02:10:17.037Z,7.65
2023-04-26T02:13:19.564Z,7.68
2023-04-26T02:16:22.385Z,7.68
2023-04-26T02:19:25.057Z,7.51
2023-04-26T02:22:27.716Z,7.44
2023-04-26T02:25:32.198Z,7.43
2023-04-26T02:28:34.708Z,7.41
2023-04-26T02:31:37.286Z,7.27
2023-04-26T02:34:39.796Z,7.28
2023-04-26T02:37:42.281Z,7.15
2023-04-26T02:40:46.154Z,7.17
2023-04-26T02:43:48.647Z,6.97
2023-04-26T02:46:51.255Z,6.91
2023-04-26T02:49:53.733Z,6.98
2023-04-26T02:52:56.292Z,7.06
2023-04-26T02:56:00.982Z,7.01
2023-04-26T02:59:03.498Z,7.05
2023-04-26T03:02:06.226Z,7.10
2023-04-26T03:05:10.720Z,7.10
2023-04-26T03:08:13.480Z,7.01
2023-04-26T03:11:17.637Z,6.98
2023-04-26T03:14:20.155Z,6.97
2023-04-26T03:17:22.822Z,6.94
2023-04-26T03:20:25.597Z,6.95
2023-04-26T03:23:28.700Z,6.74
2023-04-26T03:26:32.609Z,6.69
2023-04-26T03:29:35.267Z,6.65
2023-04-26T03:32:38.386Z,6.55
2023-04-26T03:35:41.018Z,6.49
2023-04-26T03:38:43.875Z,6.36
2023-04-26T03:41:47.844Z,6.19
2023-04-26T03:44:50.548Z,6.11
2023-04-26T03:47:53.356Z,5.95
2023-04-26T03:50:56.261Z,5.83
2023-04-26T03:53:59.881Z,5.69
2023-04-26T03:57:03.880Z,5.65
2023-04-26T04:00:10.107Z,5.62
2023-04-26T04:03:12.925Z,5.63
2023-04-26T04:06:15.784Z,5.56
2023-04-26T04:09:18.296Z,5.59
2023-04-26T04:12:22.918Z,5.39
2023-04-26T04:15:25.652Z,5.41
2023-04-26T04:18:28.268Z,5.50
2023-04-26T04:21:32.053Z,5.57
2023-04-26T04:24:34.652Z,5.61
2023-04-26T04:27:38.992Z,5.65
2023-04-26T04:30:43.619Z,5.71
2023-04-26T04:33:46.438Z,5.73
2023-04-26T04:36:48.937Z,5.78
2023-04-26T04:39:51.549Z,5.78
2023-04-26T04:42:55.736Z,5.86
2023-04-26T04:45:58.900Z,5.95
2023-04-26T04:49:02.152Z,6.01
2023-04-26T04:52:05.336Z,6.05
2023-04-26T04:55:08.458Z,6.10
2023-04-26T04:58:14.036Z,6.14
2023-04-26T05:01:16.633Z,6.14
2023-04-26T05:04:19.489Z,6.28
2023-04-26T05:07:24.422Z,6.44
2023-04-26T05:10:27.262Z,6.61
2023-04-26T05:13:31.213Z,6.77
2023-04-26T05:16:35.551Z,7.02
2023-04-26T05:19:38.233Z,7.12
2023-04-26T05:22:41.358Z,7.21
2023-04-26T05:25:43.929Z,7.36
2023-04-26T05:28:47.861Z,7.49
2023-04-26T05:31:50.725Z,7.58
2023-04-26T05:34:54.486Z,7.57
2023-04-26T05:37:57.041Z,7.69
2023-04-26T05:40:59.599Z,7.77
2023-04-26T05:44:03.939Z,7.82
2023-04-26T05:47:06.539Z,7.92
2023-04-26T05:50:10.157Z,7.97
2023-04-26T05:53:12.796Z,8.04
2023-04-26T05:56:15.527Z,8.15
2023-04-26T05:59:19.486Z,8.20
2023-04-26T06:02:22.106Z,8.34
2023-04-26T06:05:25.009Z,8.47
2023-04-26T06:08:28.369Z,8.70
2023-04-26T06:11:31.202Z,8.79
2023-04-26T06:14:35.114Z,9.00
2023-04-26T06:17:37.709Z,9.20
2023-04-26T06:20:40.365Z,9.45
2023-04-26T06:23:43.204Z,9.67
2023-04-26T06:26:45.805Z,9.79
2023-04-26T06:29:50.543Z,10.11
2023-04-26T06:32:53.169Z,10.21
2023-04-26T06:35:55.845Z,10.34
2023-04-26T06:38:58.413Z,10.47
2023-04-26T06:42:01.370Z,10.48
2023-04-26T06:45:06.567Z,10.46
2023-04-26T06:48:09.288Z,10.55
2023-04-26T06:51:12.115Z,10.50
2023-04-26T06:54:14.986Z,10.74
2023-04-26T06:57:17.618Z,10.71
2023-04-26T07:00:22.596Z,10.72
2023-04-26T07:03:25.748Z,10.63
2023-04-26T07:06:28.548Z,10.35
2023-04-26T07:09:31.689Z,10.29
2023-04-26T07:12:34.255Z,10.47
2023-04-26T07:15:38.440Z,10.31
2023-04-26T07:18:41.273Z,10.55
2023-04-26T07:21:43.921Z,10.60
2023-04-26T07:24:46.479Z,10.85
2023-04-26T07:27:51.618Z,10.98
2023-04-26T07:30:55.778Z,11.04
2023-04-26T07:33:58.371Z,10.86
2023-04-26T07:37:01.683Z,10.69
2023-04-26T07:40:08.039Z,10.88
2023-04-26T07:43:10.694Z,11.31
2023-04-26T07:46:14.944Z,11.56
2023-04-26T07:49:17.565Z,11.64
2023-04-26T07:52:20.539Z,11.70
2023-04-26T07:55:23.204Z,11.78
2023-04-26T07:58:25.823Z,11.98
2023-04-26T08:01:30.320Z,12.43
2023-04-26T08:04:34.750Z,13.01
2023-04-26T08:07:37.715Z,12.46
2023-04-26T08:10:41.752Z,12.21
2023-04-26T08:13:45.041Z,11.89
2023-04-26T08:16:49.140Z,11.73
2023-04-26T08:19:51.693Z,12.12
2023-04-26T08:22:56.774Z,12.32
2023-04-26T08:25:59.647Z,13.30
2023-04-26T08:29:02.281Z,13.59
2023-04-26T08:32:07.180Z,13.74
2023-04-26T08:35:10.683Z,14.34
2023-04-26T08:38:13.417Z,14.75
2023-04-26T08:41:16.766Z,15.46
2023-04-26T08:44:24.234Z,15.60
2023-04-26T08:47:31.641Z,15.75
2023-04-26T08:50:34.890Z,16.27
2023-04-26T08:53:38.224Z,16.13
2023-04-26T08:56:44.222Z,15.84
2023-04-26T08:59:46.845Z,15.71
2023-04-26T09:02:52.520Z,15.43
2023-04-26T09:05:55.857Z,15.16
2023-04-26T09:08:58.893Z,15.82
2023-04-26T09:12:03.246Z,16.33
2023-04-26T09:15:07.321Z,16.40
2023-04-26T09:18:21.791Z,15.51
2023-04-26T09:21:24.422Z,15.33
2023-04-26T09:24:27.047Z,14.71
2023-04-26T09:27:37.453Z,15.11
2023-04-26T09:30:40.431Z,14.94
2023-04-26T09:34:02.118Z,15.88
2023-04-26T09:37:04.850Z,16.57
2023-04-26T09:40:11.873Z,16.93
2023-04-26T09:43:15.979Z,16.76
2023-04-26T09:46:23.880Z,17.18
2023-04-26T09:49:28.958Z,17.21
2023-04-26T09:52:31.775Z,16.85
2023-04-26T09:55:35.920Z,16.86
2023-04-26T09:58:39.674Z,16.25
2023-04-26T10:01:42.652Z,15.85
2023-04-26T10:04:48.133Z,15.11
2023-04-26T10:07:51.842Z,16.07
2023-04-26T10:10:55.487Z,16.51
2023-04-26T10:13:58.124Z,16.00
2023-04-26T10:17:01.641Z,16.77
2023-04-26T10:20:10.114Z,17.67
2023-04-26T10:23:20.161Z,17.83
2023-04-26T10:26:48.199Z,17.27
2023-04-26T10:30:12.201Z,17.60
2023-04-26T10:33:15.188Z,18.62
2023-04-26T10:36:21.114Z,19.25
2023-04-26T10:39:25.096Z,19.74
2023-04-26T10:42:30.278Z,19.57
2023-04-26T10:45:33.083Z,18.42
2023-04-26T10:48:35.767Z,18.40
2023-04-26T10:51:39.765Z,18.16
2023-04-26T10:54:52.709Z,18.82
2023-04-26T10:57:57.386Z,19.28
2023-04-26T11:01:07.120Z,18.05
2023-04-26T11:04:11.616Z,17.66
2023-04-26T11:07:16.230Z,18.51
2023-04-26T11:10:23.852Z,19.63
2023-04-26T11:13:26.653Z,19.75
2023-04-26T11:16:30.077Z,20.41
2023-04-26T11:19:32.844Z,21.08
2023-04-26T11:22:40.792Z,19.96
2023-04-26T11:25:43.394Z,17.62
2023-04-26T11:28:46.537Z,17.69
2023-04-26T11:31:54.516Z,17.66
2023-04-26T11:35:01.407Z,18.75
2023-04-26T11:38:06.619Z,19.69
2023-04-26T11:41:10.461Z,20.96
2023-04-26T11:44:13.151Z,20.41
2023-04-26T11:47:15.767Z,19.05
2023-04-26T11:50:18.991Z,20.10
2023-04-26T11:53:23.442Z,20.22
2023-04-26T11:56:26.862Z,20.71
2023-04-26T11:59:29.748Z,20.90
2023-04-26T12:02:32.423Z,21.35
2023-04-26T12:05:35.151Z,20.40
2023-04-26T12:08:39.124Z,20.58
2023-04-26T12:11:41.795Z,19.09
2023-04-26T12:14:45.449Z,18.78
2023-04-26T12:17:58.289Z,19.22
2023-04-26T12:21:01.294Z,20.30
2023-04-26T12:24:05.777Z,21.21
2023-04-26T12:27:08.546Z,21.35
2023-04-26T12:30:11.631Z,21.27
2023-04-26T12:33:17.457Z,20.44
2023-04-26T12:36:21.162Z,19.90
2023-04-26T12:39:25.119Z,19.96
2023-04-26T12:42:27.793Z,20.09
2023-04-26T12:45:30.451Z,19.78
2023-04-26T12:48:34.201Z,19.87
2023-04-26T12:51:36.772Z,22.47
2023-04-26T12:54:40.682Z,21.54
2023-04-26T12:57:44.576Z,24.17
2023-04-26T13:00:47.128Z,29.76
2023-04-26T13:03:49.888Z,29.35
2023-04-26T13:06:53.015Z,33.63
2023-04-26T13:09:56.983Z,31.14
2023-04-26T13:12:59.759Z,28.69
2023-04-26T13:16:02.412Z,27.69
2023-04-26T13:19:05.161Z,30.12
2023-04-26T13:22:10.008Z,35.82
2023-04-26T13:25:15.687Z,37.49
2023-04-26T13:28:18.234Z,32.47
2023-04-26T13:31:21.109Z,32.76
2023-04-26T13:34:23.647Z,35.24
2023-04-26T13:37:27.006Z,38.09
2023-04-26T13:40:31.063Z,39.75
2023-04-26T13:43:33.639Z,35.50
2023-04-26T13:46:36.749Z,34.81
2023-04-26T13:49:40.084Z,39.87
2023-04-26T13:52:42.924Z,39.67
2023-04-26T13:55:46.901Z,38.30
2023-04-26T13:58:49.794Z,39.44
2023-04-26T14:01:54.704Z,40.92
2023-04-26T14:04:58.523Z,34.75
2023-04-26T14:08:01.290Z,30.24
2023-04-26T14:11:06.127Z,28.94
2023-04-26T14:14:08.694Z,29.83
2023-04-26T14:17:11.660Z,30.34
2023-04-26T14:20:14.047Z,35.87
2023-04-26T14:23:16.955Z,31.95
2023-04-26T14:26:21.533Z,34.77
2023-04-26T14:29:24.127Z,34.73
2023-04-26T14:32:26.922Z,35.79
2023-04-26T14:35:29.518Z,37.40
2023-04-26T14:38:32.431Z,39.07
2023-04-26T14:41:36.353Z,36.45
2023-04-26T14:44:38.971Z,37.45
2023-04-26T14:47:41.547Z,41.26
2023-04-26T14:50:44.197Z,40.97
2023-04-26T14:53:47.071Z,40.32
2023-04-26T14:56:51.424Z,34.34
2023-04-26T14:59:54.113Z,34.92
2023-04-26T15:02:56.873Z,37.18
2023-04-26T15:05:59.929Z,36.89
2023-04-26T15:09:02.549Z,29.70
2023-04-26T15:12:07.920Z,28.53
2023-04-26T15:15:11.333Z,29.08
2023-04-26T15:18:16.738Z,31.01
2023-04-26T15:21:19.663Z,31.74
2023-04-26T15:24:22.524Z,27.69
2023-04-26T15:27:26.938Z,30.75
2023-04-26T15:30:30.323Z,33.87
2023-04-26T15:33:32.920Z,29.74
2023-04-26T15:36:35.520Z,31.56
2023-04-26T15:39:38.289Z,35.71
2023-04-26T15:42:42.196Z,36.66
2023-04-26T15:45:44.763Z,36.79
2023-04-26T15:48:48.164Z,34.72
2023-04-26T15:51:50.729Z,35.10
2023-04-26T15:54:53.383Z,31.28
2023-04-26T15:57:57.554Z,24.72
2023-04-26T16:01:00.332Z,28.52
2023-04-26T16:04:03.348Z,27.48
2023-04-26T16:07:05.975Z,23.70
2023-04-26T16:10:10.117Z,20.63
2023-04-26T16:13:16.373Z,20.21
2023-04-26T16:16:19.302Z,22.06
2023-04-26T16:19:22.932Z,20.36
2023-04-26T16:22:25.730Z,19.97
2023-04-26T16:28:32.069Z,18.83
2023-04-26T16:31:34.896Z,18.83
2023-04-26T16:34:37.534Z,18.57
2023-04-26T16:37:41.742Z,18.99
2023-04-26T16:40:44.345Z,20.97
2023-04-26T16:43:48.509Z,23.25
2023-04-26T16:46:51.182Z,24.18
2023-04-26T16:49:53.926Z,22.27
2023-04-26T16:52:56.559Z,21.42
2023-04-26T16:55:59.365Z,20.74
2023-04-26T16:59:03.249Z,21.09
2023-04-26T17:02:06.061Z,20.44
2023-04-26T17:05:10.026Z,19.56
2023-04-26T17:08:12.718Z,18.58
2023-04-26T17:11:16.145Z,17.83
2023-04-26T17:14:19.901Z,17.50
2023-04-26T17:17:22.529Z,17.27
2023-04-26T17:20:25.161Z,16.85
2023-04-26T17:23:27.867Z,16.67
2023-04-26T17:26:30.945Z,16.67
2023-04-26T17:29:35.116Z,16.49
2023-04-26T17:32:37.854Z,16.18
2023-04-26T17:35:40.441Z,15.83
2023-04-26T17:38:43.344Z,15.54
2023-04-26T17:41:46.008Z,15.44
2023-04-26T17:44:49.973Z,15.47
2023-04-26T17:47:52.554Z,15.39
2023-04-26T17:50:55.148Z,15.41
2023-04-26T17:53:57.864Z,15.27
2023-04-26T17:57:00.465Z,15.03
2023-04-26T18:00:05.474Z,14.79
2023-04-26T18:03:08.432Z,14.65
2023-04-26T18:06:11.481Z,14.33
2023-04-26T18:09:14.083Z,13.98
2023-04-26T18:12:16.743Z,13.64
2023-04-26T18:15:20.864Z,13.47
2023-04-26T18:18:25.187Z,13.24
2023-04-26T18:21:29.748Z,13.16
2023-04-26T18:24:32.294Z,13.00
2023-04-26T18:27:34.990Z,12.83
2023-04-26T18:30:38.948Z,12.62
2023-04-26T18:33:41.493Z,12.53
2023-04-26T18:36:44.222Z,12.44
2023-04-26T18:39:46.830Z,12.30
2023-04-26T18:42:49.523Z,12.20
2023-04-26T18:45:53.501Z,12.15
2023-04-26T18:48:56.280Z,12.11
2023-04-26T18:51:58.810Z,12.00
2023-04-26T18:55:01.348Z,11.96
2023-04-26T18:58:03.980Z,11.96
2023-04-26T19:01:08.071Z,11.93
2023-04-26T19:04:10.929Z,11.77
2023-04-26T19:07:13.629Z,11.73
2023-04-26T19:10:16.565Z,11.80
2023-04-26T19:13:19.630Z,11.82
2023-04-26T19:16:23.750Z,11.80
2023-04-26T19:19:26.427Z,11.74
2023-04-26T19:22:29.075Z,11.70
2023-04-26T19:25:31.646Z,11.66
2023-04-26T19:28:34.478Z,11.70
2023-04-26T19:31:38.860Z,11.68
2023-04-26T19:34:41.502Z,11.74
2023-04-26T19:37:44.080Z,11.67
2023-04-26T19:40:46.808Z,11.70
2023-04-26T19:43:49.494Z,11.70
2023-04-26T19:46:53.761Z,11.59
2023-04-26T19:49:57.837Z,11.67
2023-04-26T19:53:00.478Z,11.73
2023-04-26T19:56:03.100Z,11.70
2023-04-26T19:59:06.033Z,11.66
2023-04-26T20:02:10.153Z,11.68
2023-04-26T20:05:13.230Z,11.62
2023-04-26T20:08:15.817Z,11.63
2023-04-26T20:11:19.231Z,11.62
2023-04-26T20:14:21.756Z,11.55
2023-04-26T20:17:25.800Z,11.52
2023-04-26T20:20:28.599Z,11.45
2023-04-26T20:23:31.401Z,11.37
2023-04-26T20:26:33.936Z,11.39
2023-04-26T20:29:37.177Z,11.31
2023-04-26T20:32:41.109Z,11.14
2023-04-26T20:35:43.704Z,11.10
2023-04-26T20:38:46.322Z,11.05
2023-04-26T20:41:48.881Z,11.07
2023-04-26T20:44:51.470Z,10.99
2023-04-26T20:47:55.558Z,10.93
2023-04-26T20:50:58.724Z,10.86
2023-04-26T20:54:01.369Z,10.80
2023-04-26T20:57:04.460Z,10.81
2023-04-26T21:00:10.348Z,10.85
2023-04-26T21:03:14.613Z,10.75
2023-04-26T21:06:17.264Z,10.66
2023-04-26T21:09:19.840Z,10.65
2023-04-26T21:12:22.457Z,10.58
2023-04-26T21:15:25.044Z,10.55
2023-04-26T21:18:28.946Z,10.49
2023-04-26T21:21:32.612Z,10.40
2023-04-26T21:24:35.298Z,10.39
2023-04-26T21:27:37.877Z,10.36
2023-04-26T21:30:40.509Z,10.36
2023-04-26T21:33:44.380Z,10.33
2023-04-26T21:36:47.319Z,10.26
2023-04-26T21:39:49.933Z,10.23
2023-04-26T21:43:03.911Z,10.28
2023-04-26T21:46:07.905Z,10.35
2023-04-26T21:49:12.211Z,10.27
2023-04-26T21:52:14.875Z,10.37
2023-04-26T21:55:17.482Z,10.37
2023-04-26T21:58:20.562Z,10.35
2023-04-26T22:01:23.378Z,10.43
2023-04-26T22:04:27.290Z,10.39
2023-04-26T22:07:30.104Z,10.39
2023-04-26T22:10:32.899Z,10.43
2023-04-26T22:13:35.777Z,10.39
2023-04-26T22:16:38.278Z,10.34
2023-04-26T22:19:42.188Z,10.28
2023-04-26T22:22:44.743Z,10.23
2023-04-26T22:25:47.374Z,10.29
2023-04-26T22:28:49.893Z,10.25
2023-04-26T22:31:52.487Z,10.25
2023-04-26T22:34:56.402Z,10.31
2023-04-26T22:37:59.020Z,10.30
2023-04-26T22:41:01.531Z,10.28
2023-04-26T22:44:04.077Z,10.26
2023-04-26T22:47:06.657Z,10.32
2023-04-26T22:50:11.797Z,10.32
2023-04-26T22:53:14.384Z,10.29
2023-04-26T22:56:17.033Z,10.29
2023-04-26T22:59:19.616Z,10.25
2023-04-26T23:02:22.343Z,10.18
2023-04-26T23:05:26.338Z,10.15
2023-04-26T23:08:28.840Z,10.10
2023-04-26T23:11:31.802Z,10.10
2023-04-26T23:14:35.105Z,10.06
2023-04-26T23:17:39.009Z,10.03
2023-04-26T23:20:42.888Z,10.05
2023-04-26T23:23:45.395Z,10.00
2023-04-26T23:26:47.932Z,9.94
2023-04-26T23:29:50.967Z,9.95
2023-04-26T23:32:53.559Z,9.96
2023-04-26T23:35:57.702Z,9.95
2023-04-26T23:39:00.212Z,9.91
2023-04-26T23:42:03.727Z,9.89
2023-04-26T23:45:07.759Z,9.90
2023-04-26T23:48:10.371Z,9.89
2023-04-26T23:51:14.349Z,9.87
2023-04-26T23:54:17.004Z,9.84
2023-04-26T23:57:19.582Z,9.81
